Time;durP1;ratioP1;P1;durP2;ratioP2;P2;SDS_P1;SDS_P2;PMS_P1;PMS_P2;Temp;Humidity;BMP_temperature;BMP_pressure;BME280_temperature;BME280_humidity;BME280_pressure;Samples;Min_cycle;Max_cycle;Signal;HPM_P1;HPM_P2
2021/12/12 00:00:44;;;;;;;116.63;67.13;;;;;;;0.93;97.64;102002.47;4965941;28;20037;-89
2021/12/12 00:03:49;;;;;;;108.13;65.35;;;;;;;0.81;97.44;101970.00;4928160;29;20103;-89
2021/12/12 00:06:46;;;;;;;103.40;65.05;;;;;;;0.87;97.62;101990.44;4921797;29;20047;-89
2021/12/12 00:09:47;;;;;;;124.72;67.80;;;;;;;0.52;97.74;101966.53;4968647;28;20038;-90
2021/12/12 00:12:48;;;;;;;114.38;65.32;;;;;;;0.84;97.85;102004.69;4966510;28;20046;-89
2021/12/12 00:15:27;;;;;;;117.28;64.15;;;;;;;0.93;98.39;102019.34;4975307;28;20133;-90
2021/12/12 00:18:08;;;;;;;109.10;64.05;;;;;;;0.97;97.80;102005.94;4949024;28;20027;-89
2021/12/12 00:21:00;;;;;;;109.22;64.93;;;;;;;0.71;98.36;101984.03;4960446;28;20026;-89
2021/12/12 00:23:39;;;;;;;113.35;66.68;;;;;;;0.97;98.23;102016.97;4960329;29;20063;-89
2021/12/12 00:26:51;;;;;;;106.72;61.10;;;;;;;0.94;98.81;102009.25;4949453;28;20045;-89
2021/12/12 00:29:30;;;;;;;116.07;66.40;;;;;;;0.85;98.36;101966.75;4927611;29;20122;-89
2021/12/12 00:36:06;;;;;;;113.50;62.35;;;;;;;0.96;98.12;101979.75;4985639;28;20026;-88
2021/12/12 00:38:46;;;;;;;101.68;64.20;;;;;;;1.13;98.31;102013.22;4918992;28;20051;-88
2021/12/12 00:41:52;;;;;;;114.88;68.13;;;;;;;0.95;98.82;102003.34;4963388;28;20496;-90
2021/12/12 00:45:08;;;;;;;111.95;66.28;;;;;;;1.06;98.40;101996.09;4933515;28;20077;-89
2021/12/12 00:54:30;;;;;;;133.60;67.47;;;;;;;0.92;99.78;101998.19;4909172;29;20037;-89
2021/12/12 01:00:36;;;;;;;119.47;67.88;;;;;;;0.68;100.00;101972.94;4947683;29;20183;-89
2021/12/12 01:03:24;;;;;;;132.82;71.35;;;;;;;0.55;100.00;101946.38;4913387;29;20052;-89
2021/12/12 01:06:38;;;;;;;119.13;65.85;;;;;;;0.69;99.77;101944.28;4957940;28;20027;-89
2021/12/12 01:21:15;;;;;;;;;;;;;;;;;;;;;
2021/12/12 01:27:50;;;;;;;123.18;66.20;;;;;;;0.78;99.25;101951.31;4865462;29;20089;-89
2021/12/12 01:30:58;;;;;;;124.05;66.20;;;;;;;1.21;99.26;102009.25;4842368;29;20036;-88
2021/12/12 01:40:53;;;;;;;;;;;;;;;;;;;;;
2021/12/12 01:44:18;;;;;;;97.07;63.95;;;;;;;1.29;98.39;102016.19;4983689;28;20110;-88
2021/12/12 02:00:34;;;;;;;99.85;63.90;;;;;;;1.43;97.85;102025.09;5021967;28;20038;-84
2021/12/12 02:03:00;;;;;;;106.80;63.08;;;;;;;1.45;98.06;102026.84;5018159;28;20120;-87
2021/12/12 02:05:27;;;;;;;101.38;63.58;;;;;;;1.57;97.45;102031.41;5042406;28;20021;-85
2021/12/12 02:08:05;;;;;;;110.85;66.72;;;;;;;1.55;97.31;102028.00;5024118;28;20034;-85
2021/12/12 02:10:44;;;;;;;92.50;60.33;;;;;;;1.41;97.61;102003.91;5003096;28;20006;-86
2021/12/12 02:13:16;;;;;;;92.95;61.90;;;;;;;1.49;96.92;102026.94;4995405;28;20034;-87
2021/12/12 02:16:30;;;;;;;;;;;;;;;;;;;;;
2021/12/12 02:20:02;;;;;;;88.28;60.03;;;;;;;1.47;97.02;102015.91;4943667;29;20103;-87
2021/12/12 02:37:51;;;;;;;86.97;61.08;;;;;;;1.65;96.21;102018.13;5020191;28;20059;-88
2021/12/12 02:40:43;;;;;;;78.82;58.78;;;;;;;1.60;96.37;102008.69;4978610;28;20026;-89
2021/12/12 02:43:13;;;;;;;83.88;60.03;;;;;;;1.66;96.24;102017.31;4999001;28;20062;-87
2021/12/12 02:45:45;;;;;;;85.63;60.33;;;;;;;1.61;96.34;102001.97;4990148;28;20034;-85
2021/12/12 02:49:02;;;;;;;;;;;;;;;;;;;;;
2021/12/12 02:51:58;;;;;;;84.60;60.35;;;;;;;1.49;96.45;101981.31;5010350;28;20121;-85
2021/12/12 02:55:26;;;;;;;;;;;;;;;;;;;;;
2021/12/12 02:58:17;;;;;;;87.65;62.35;;;;;;;1.44;95.82;101961.75;5020131;28;20133;-85
2021/12/12 03:07:23;;;;;;;83.97;61.05;;;;;;;1.72;95.02;101987.00;5003001;28;20030;-86
2021/12/12 03:09:54;;;;;;;74.00;58.90;;;;;;;1.67;95.71;101986.03;4987360;28;20098;-86
2021/12/12 03:12:23;;;;;;;82.57;59.72;;;;;;;1.74;95.29;101982.88;4996721;28;20117;-87
2021/12/12 03:14:49;;;;;;;76.55;58.95;;;;;;;1.84;95.58;102010.19;4989601;28;20022;-86
2021/12/12 03:17:20;;;;;;;82.13;59.85;;;;;;;1.89;95.49;102002.72;4969019;28;20023;-87
2021/12/12 03:19:52;;;;;;;80.88;60.58;;;;;;;1.87;95.11;102007.75;5010200;28;20030;-86
2021/12/12 03:22:18;;;;;;;75.88;58.20;;;;;;;1.82;95.08;102001.69;4957749;28;20090;-87
2021/12/12 03:24:43;;;;;;;81.38;60.25;;;;;;;1.77;94.94;101990.56;4973695;28;20014;-87
2021/12/12 03:27:10;;;;;;;78.43;59.43;;;;;;;1.81;95.21;101998.31;4973618;28;20117;-87
2021/12/12 03:29:39;;;;;;;77.47;58.20;;;;;;;1.73;95.46;101986.22;4966806;28;20434;-87
2021/12/12 03:32:11;;;;;;;80.50;59.15;;;;;;;1.70;95.27;101992.03;4965842;28;20081;-86
2021/12/12 03:34:39;;;;;;;83.55;61.15;;;;;;;1.65;95.68;101997.81;4986343;28;20057;-88
2021/12/12 03:37:07;;;;;;;77.50;61.40;;;;;;;1.69;95.52;101994.56;4953652;28;20027;-87
2021/12/12 03:39:37;;;;;;;83.38;61.08;;;;;;;1.72;96.20;101999.69;4963247;28;20030;-86
2021/12/12 03:42:06;;;;;;;94.10;62.97;;;;;;;1.65;95.72;102000.34;4975193;28;20030;-88
2021/12/12 03:44:34;;;;;;;87.38;60.42;;;;;;;1.69;95.82;102008.09;4968733;28;20475;-87
2021/12/12 03:47:09;;;;;;;87.93;62.00;;;;;;;1.59;96.21;101996.84;4969256;28;20026;-88
2021/12/12 03:49:37;;;;;;;94.65;62.10;;;;;;;1.66;95.81;102002.09;4985967;28;20030;-88
2021/12/12 03:52:05;;;;;;;88.47;60.15;;;;;;;1.81;95.88;102020.25;4970385;28;20033;-87
2021/12/12 03:54:31;;;;;;;86.40;63.13;;;;;;;1.81;95.72;102015.19;4969735;28;20060;-85
2021/12/12 03:56:56;;;;;;;92.87;63.53;;;;;;;1.73;95.56;101992.13;4985793;28;20097;-86
2021/12/12 03:59:23;;;;;;;84.10;61.87;;;;;;;1.79;95.83;102007.53;4977759;28;20026;-87
2021/12/12 04:01:50;;;;;;;93.28;62.85;;;;;;;1.85;95.79;102016.16;4967999;29;20034;-88
2021/12/12 04:04:38;;;;;;;81.50;62.25;;;;;;;1.92;95.96;102012.94;4968490;28;20053;-86
2021/12/12 04:07:13;;;;;;;94.18;63.08;;;;;;;1.87;95.75;102010.28;4988707;28;20102;-86
2021/12/12 04:09:38;;;;;;;99.53;64.05;;;;;;;1.87;95.93;102019.59;4968913;28;20018;-85
2021/12/12 04:12:09;;;;;;;90.03;61.50;;;;;;;1.80;95.93;102010.94;4992183;28;20048;-86
2021/12/12 04:14:34;;;;;;;87.75;62.95;;;;;;;1.84;95.89;102015.28;4966479;28;20098;-85
2021/12/12 04:17:11;;;;;;;95.13;61.17;;;;;;;1.81;95.80;101999.97;4963678;28;20021;-88
2021/12/12 04:19:37;;;;;;;92.55;63.58;;;;;;;1.96;96.13;102022.38;4985384;28;20026;-86
2021/12/12 04:22:04;;;;;;;92.22;60.58;;;;;;;2.08;95.51;102030.31;4975977;28;20075;-86
2021/12/12 04:24:36;;;;;;;94.07;62.67;;;;;;;2.02;95.61;102026.75;4979689;28;20037;-85
2021/12/12 04:27:03;;;;;;;95.28;63.45;;;;;;;1.98;95.80;102013.97;4969347;28;20015;-85
2021/12/12 04:29:32;;;;;;;102.40;61.25;;;;;;;2.06;95.73;102016.72;4978297;28;20018;-84
2021/12/12 04:32:15;;;;;;;101.25;66.65;;;;;;;1.87;95.71;101995.06;4963080;28;20043;-85
2021/12/12 04:34:46;;;;;;;91.07;64.55;;;;;;;1.98;95.52;102015.66;5028344;28;20035;-85
2021/12/12 04:37:11;;;;;;;95.07;61.15;;;;;;;2.05;95.87;102019.22;4986950;28;20042;-85
2021/12/12 04:39:40;;;;;;;99.28;63.90;;;;;;;2.08;95.66;102025.22;4977717;28;20083;-85
2021/12/12 04:42:12;;;;;;;96.85;63.58;;;;;;;2.14;95.69;102019.47;4966574;28;20034;-84
2021/12/12 04:44:40;;;;;;;101.63;65.10;;;;;;;2.13;96.01;102012.66;4982648;28;20054;-85
2021/12/12 04:50:29;;;;;;;104.55;67.95;;;;;;;2.16;96.03;102013.63;4995639;28;20022;-86
2021/12/12 04:53:12;;;;;;;93.15;62.42;;;;;;;2.19;96.68;102012.84;4964358;28;20094;-85
2021/12/12 04:55:48;;;;;;;99.68;65.95;;;;;;;2.08;96.68;101999.00;4966109;28;20035;-85
2021/12/12 04:58:23;;;;;;;109.73;67.67;;;;;;;2.01;96.95;101990.38;4966371;28;20018;-85
2021/12/12 05:01:01;;;;;;;104.03;67.20;;;;;;;2.05;96.97;101988.75;4982423;28;20026;-86
2021/12/12 05:03:53;;;;;;;111.25;69.75;;;;;;;2.16;96.80;102000.06;4982667;28;20099;-85
2021/12/12 05:06:26;;;;;;;99.78;64.72;;;;;;;2.12;96.93;101986.44;4986024;28;20027;-87
2021/12/12 05:09:06;;;;;;;107.07;65.95;;;;;;;2.16;97.64;102000.94;4970477;28;20086;-87
2021/12/12 05:11:51;;;;;;;102.55;65.13;;;;;;;2.23;97.43;101999.41;4992694;28;20019;-85
2021/12/12 05:14:23;;;;;;;108.22;65.43;;;;;;;2.11;97.01;101974.56;5001985;28;20050;-85
2021/12/12 05:17:05;;;;;;;107.55;69.35;;;;;;;2.22;97.94;101992.59;4976500;28;20094;-85
2021/12/12 05:19:31;;;;;;;124.75;69.22;;;;;;;2.26;97.57;101993.53;4948826;28;20050;-86
2021/12/12 05:22:04;;;;;;;105.25;69.55;;;;;;;2.27;97.70;101980.88;4991756;28;20031;-85
2021/12/12 05:24:30;;;;;;;106.18;65.60;;;;;;;2.31;97.23;101992.84;4996942;28;20023;-86
2021/12/12 05:26:59;;;;;;;108.38;65.30;;;;;;;2.34;97.60;101975.16;5011895;28;20060;-87
2021/12/12 05:29:32;;;;;;;117.90;71.47;;;;;;;2.35;97.61;101984.50;4978135;28;20049;-86
2021/12/12 05:32:01;;;;;;;112.13;66.75;;;;;;;2.34;97.33;101987.84;4983048;28;20298;-87
2021/12/12 05:34:32;;;;;;;114.72;67.78;;;;;;;2.36;97.46;101990.44;5005043;28;20023;-88
2021/12/12 05:36:59;;;;;;;113.95;68.55;;;;;;;2.39;97.53;101989.63;4977627;28;20042;-87
2021/12/12 05:39:27;;;;;;;;;;;;;;;2.36;98.00;101993.81;4996273;28;20167;-88
2021/12/12 05:41:54;;;;;;;113.60;69.30;;;;;;;2.31;97.98;101977.63;5013357;28;19909;-86
2021/12/12 05:44:20;;;;;;;117.15;68.85;;;;;;;2.36;98.21;101986.19;4968623;28;20400;-87
2021/12/12 05:46:46;;;;;;;109.00;68.35;;;;;;;2.37;97.88;101992.16;4974069;28;20026;-87
2021/12/12 05:49:11;;;;;;;109.47;66.32;;;;;;;2.38;97.71;101972.69;4973421;28;20035;-87
2021/12/12 05:51:37;;;;;;;119.60;70.00;;;;;;;2.25;97.58;101961.38;4988540;28;20114;-86
2021/12/12 05:54:04;;;;;;;109.45;68.30;;;;;;;2.36;97.89;101976.03;4971418;28;20043;-87
2021/12/12 05:56:34;;;;;;;109.35;68.00;;;;;;;2.32;98.17;101989.50;4999199;28;20022;-87
2021/12/12 05:59:05;;;;;;;118.15;68.68;;;;;;;2.29;98.46;101979.25;4959837;28;20023;-87
2021/12/12 06:01:31;;;;;;;111.40;68.82;;;;;;;2.28;98.14;101977.53;4972653;28;20050;-87
2021/12/12 06:03:59;;;;;;;116.18;67.90;;;;;;;2.29;98.01;101980.91;4979572;28;20030;-86
2021/12/12 06:06:30;;;;;;;113.70;67.63;;;;;;;2.29;98.47;101974.19;4982330;28;20123;-86
2021/12/12 06:08:57;;;;;;;128.55;69.93;;;;;;;2.46;98.35;101994.06;4995968;28;20057;-85
2021/12/12 06:11:25;;;;;;;115.68;66.85;;;;;;;2.46;98.44;101996.59;4960903;28;20423;-87
2021/12/12 06:13:51;;;;;;;114.68;66.53;;;;;;;2.41;98.46;101988.00;4967212;28;20015;-87
2021/12/12 06:16:21;;;;;;;113.53;67.72;;;;;;;2.46;98.41;101994.06;4956383;28;20042;-87
2021/12/12 06:18:59;;;;;;;116.97;71.72;;;;;;;2.51;98.73;101995.03;4985336;28;20053;-86
2021/12/12 06:21:24;;;;;;;113.45;70.88;;;;;;;2.39;98.40;101971.84;4986764;28;20028;-86
2021/12/12 06:23:51;;;;;;;119.73;67.83;;;;;;;2.43;98.54;101971.13;4983805;28;20003;-87
2021/12/12 06:26:20;;;;;;;114.68;67.47;;;;;;;2.48;98.76;101970.44;4986204;28;20267;-86
2021/12/12 06:28:48;;;;;;;117.40;69.38;;;;;;;2.46;98.30;101968.66;4985772;28;20096;-86
2021/12/12 06:31:14;;;;;;;114.55;68.22;;;;;;;2.39;98.54;101957.50;4971149;28;20054;-86
2021/12/12 06:33:43;;;;;;;113.53;68.13;;;;;;;2.54;99.01;101980.75;4997619;28;20011;-87
2021/12/12 06:36:11;;;;;;;110.75;67.30;;;;;;;2.48;99.09;101980.59;4993919;28;20038;-86
2021/12/12 06:38:39;;;;;;;126.22;68.93;;;;;;;2.47;99.28;101975.47;4978412;28;20031;-87
2021/12/12 06:41:07;;;;;;;125.25;68.60;;;;;;;2.57;99.14;101985.00;4962822;29;20035;-88
2021/12/12 06:43:33;;;;;;;116.90;68.75;;;;;;;2.45;99.70;101954.22;4955118;28;20509;-87
2021/12/12 06:45:59;;;;;;;112.90;66.55;;;;;;;2.57;99.42;101974.84;4967608;28;20038;-87
2021/12/12 06:48:25;;;;;;;98.82;63.78;;;;;;;2.49;99.72;101956.03;4982531;28;20031;-88
2021/12/12 06:50:53;;;;;;;105.80;63.60;;;;;;;2.61;99.25;101965.63;4963404;28;20086;-88
2021/12/12 06:53:21;;;;;;;106.70;66.85;;;;;;;2.44;99.12;101939.84;4991878;28;20019;-86
2021/12/12 06:55:47;;;;;;;103.85;67.15;;;;;;;2.61;99.14;101965.63;4970751;28;20113;-88
2021/12/12 06:58:15;;;;;;;106.00;67.53;;;;;;;2.69;97.83;101969.22;4955001;28;20027;-86
2021/12/12 07:00:43;;;;;;;92.85;64.20;;;;;;;2.68;98.80;101965.81;4968183;28;20127;-86
2021/12/12 07:03:09;;;;;;;94.40;62.55;;;;;;;2.67;99.02;101960.69;4994037;28;20054;-86
2021/12/12 07:05:35;;;;;;;100.75;64.88;;;;;;;2.51;98.41;101936.59;4986132;28;20061;-86
2021/12/12 07:08:03;;;;;;;101.38;63.22;;;;;;;2.72;98.35;101960.00;4970985;28;20026;-86
2021/12/12 07:10:33;;;;;;;101.07;64.07;;;;;;;2.70;97.80;101958.22;4976782;28;20037;-86
2021/12/12 07:13:00;;;;;;;91.00;61.55;;;;;;;2.70;97.83;101954.03;4962756;28;20019;-87
2021/12/12 07:15:41;;;;;;;97.43;65.28;;;;;;;2.69;97.89;101938.75;4968356;28;20078;-89
2021/12/12 07:18:11;;;;;;;80.97;61.80;;;;;;;2.53;97.97;101922.28;4953553;28;20034;-85
2021/12/12 07:20:37;;;;;;;84.55;59.75;;;;;;;2.62;98.62;101935.16;4954060;28;20031;-87
2021/12/12 07:23:08;;;;;;;90.38;62.33;;;;;;;2.70;97.98;101930.28;4953343;28;20133;-87
2021/12/12 07:25:35;;;;;;;91.32;63.13;;;;;;;2.63;97.96;101934.34;5000223;28;20054;-89
2021/12/12 07:28:04;;;;;;;90.22;62.25;;;;;;;2.64;97.97;101923.38;4970502;28;20057;-87
2021/12/12 07:30:30;;;;;;;84.13;60.83;;;;;;;2.42;98.11;101895.75;4968984;28;20035;-88
2021/12/12 07:32:57;;;;;;;84.85;61.00;;;;;;;2.56;97.91;101912.16;4954316;28;20015;-87
2021/12/12 07:35:22;;;;;;;76.30;60.50;;;;;;;2.53;98.51;101917.19;4965727;28;20035;-87
2021/12/12 07:37:48;;;;;;;83.65;61.10;;;;;;;2.63;98.02;101929.28;5001518;28;20060;-87
2021/12/12 07:40:15;;;;;;;86.72;60.65;;;;;;;2.58;98.52;101910.53;4969517;28;20094;-87
2021/12/12 07:42:41;;;;;;;80.50;59.28;;;;;;;2.52;98.43;101900.22;4969398;28;20023;-88
2021/12/12 07:45:07;;;;;;;90.18;59.88;;;;;;;2.53;98.78;101901.97;4979660;28;20041;-87
2021/12/12 07:47:34;;;;;;;83.10;60.75;;;;;;;2.53;98.82;101896.88;4960190;28;20027;-88
2021/12/12 07:50:00;;;;;;;84.45;60.35;;;;;;;2.64;98.44;101923.38;4987650;28;20026;-86
2021/12/12 07:52:27;;;;;;;85.80;59.63;;;;;;;2.61;98.22;101915.69;4972680;28;20068;-86
2021/12/12 07:54:54;;;;;;;78.80;58.65;;;;;;;2.60;98.14;101919.03;4994438;28;20022;-87
2021/12/12 07:57:20;;;;;;;80.80;59.55;;;;;;;2.64;98.65;101915.75;4963155;28;20051;-86
2021/12/12 07:59:46;;;;;;;79.57;60.25;;;;;;;2.61;98.61;101904.66;4988181;28;20026;-87
2021/12/12 08:02:15;;;;;;;88.23;61.60;;;;;;;2.57;98.71;101888.50;5001738;28;20049;-87
2021/12/12 08:04:44;;;;;;;82.80;59.40;;;;;;;2.57;98.81;101891.03;4975659;28;20267;-87
2021/12/12 08:07:12;;;;;;;84.15;59.00;;;;;;;2.73;98.77;101920.19;4961658;28;20027;-85
2021/12/12 08:09:42;;;;;;;78.55;57.33;;;;;;;2.69;97.99;101908.25;4968869;28;20078;-85
2021/12/12 08:12:13;;;;;;;76.57;59.05;;;;;;;2.60;98.58;101892.78;4953235;28;20015;-87
2021/12/12 08:14:40;;;;;;;77.68;58.28;;;;;;;2.61;98.40;101900.44;4976036;28;20117;-86
2021/12/12 08:17:06;;;;;;;74.50;57.35;;;;;;;2.69;98.20;101908.25;4964989;28;20027;-86
2021/12/12 08:19:32;;;;;;;86.03;59.22;;;;;;;2.71;98.54;101896.44;4953928;28;20029;-86
2021/12/12 08:22:04;;;;;;;73.23;59.07;;;;;;;2.78;98.24;101908.44;4970605;28;20457;-85
2021/12/12 08:24:31;;;;;;;77.47;58.55;;;;;;;2.73;97.80;101900.72;4972025;28;20268;-87
2021/12/12 08:26:56;;;;;;;75.30;59.28;;;;;;;2.78;98.04;101895.72;4964349;28;20090;-85
2021/12/12 08:29:22;;;;;;;86.73;60.67;;;;;;;2.77;98.27;101895.69;4995805;28;20037;-85
2021/12/12 08:31:48;;;;;;;73.53;57.80;;;;;;;2.74;98.54;101888.88;4970359;28;20022;-85
2021/12/12 08:34:14;;;;;;;73.73;56.97;;;;;;;2.79;98.14;101891.53;4982762;28;20269;-85
2021/12/12 08:36:44;;;;;;;76.70;56.55;;;;;;;2.79;98.60;101881.38;4966539;28;20014;-85
2021/12/12 08:39:11;;;;;;;76.30;59.47;;;;;;;2.69;98.62;101859.97;4998771;28;20025;-87
2021/12/12 08:41:36;;;;;;;;;;;;;;;2.76;98.58;101873.66;4999208;28;20030;-85
2021/12/12 08:44:06;;;;;;;77.93;58.17;;;;;;;2.67;99.46;101852.31;5014776;28;19906;-86
2021/12/12 08:46:32;;;;;;;79.20;59.47;;;;;;;2.70;99.33;101859.13;5003284;28;20021;-87
2021/12/12 08:48:59;;;;;;;85.63;59.00;;;;;;;2.70;100.00;101843.88;4977125;28;20011;-86
2021/12/12 08:51:30;;;;;;;;;;;;;;;2.77;100.00;101866.09;4994312;28;20260;-87
2021/12/12 08:53:57;;;;;;;69.07;57.22;;;;;;;2.68;99.16;101823.53;5017393;28;19973;-85
2021/12/12 08:56:41;;;;;;;87.32;62.30;;;;;;;2.64;99.61;101829.38;4976765;28;20023;-87
2021/12/12 08:59:08;;;;;;;76.40;56.67;;;;;;;2.77;99.78;101839.78;5009963;28;20026;-87
2021/12/12 09:01:39;;;;;;;80.93;60.05;;;;;;;2.64;99.64;101839.56;5007742;28;20031;-87
2021/12/12 09:04:08;;;;;;;74.60;56.60;;;;;;;2.69;100.00;101837.97;4974774;28;20031;-86
2021/12/12 09:06:48;;;;;;;81.40;58.08;;;;;;;2.77;100.00;101872.81;4996417;28;20030;-86
2021/12/12 09:09:19;;;;;;;83.63;56.50;;;;;;;2.70;99.67;101861.69;5018510;28;20023;-87
2021/12/12 09:20:52;;;;;;;73.78;56.70;;;;;;;2.81;100.00;101869.53;4994731;28;20041;-87
2021/12/12 09:23:40;;;;;;;65.78;55.08;;;;;;;2.89;100.00;101862.94;5006869;28;20053;-87
2021/12/12 09:26:21;;;;;;;71.15;56.63;;;;;;;2.94;99.92;101848.63;4959194;28;20026;-87
2021/12/12 09:29:27;;;;;;;68.72;56.10;;;;;;;2.63;100.00;101806.50;4973463;28;20022;-88
2021/12/12 09:32:02;;;;;;;68.78;55.90;;;;;;;2.75;100.00;101832.13;4955439;28;20034;-85
2021/12/12 09:35:00;;;;;;;66.95;56.80;;;;;;;2.92;100.00;101855.38;4981303;28;20034;-87
2021/12/12 09:37:53;;;;;;;67.10;55.13;;;;;;;2.76;100.00;101810.16;4991908;28;20031;-86
2021/12/12 09:40:27;;;;;;;65.80;54.90;;;;;;;2.90;100.00;101841.78;4950498;28;20030;-85
2021/12/12 09:43:19;;;;;;;66.35;53.72;;;;;;;3.02;100.00;101852.22;4964174;28;20077;-88
2021/12/12 09:46:02;;;;;;;63.95;55.22;;;;;;;2.88;100.00;101833.28;4977997;28;20023;-87
2021/12/12 09:52:19;;;;;;;67.15;53.00;;;;;;;3.03;100.00;101861.53;4989633;28;20030;-87
2021/12/12 09:55:11;;;;;;;62.97;53.38;;;;;;;3.09;100.00;101860.81;5000532;28;20027;-87
2021/12/12 09:58:02;;;;;;;59.85;53.55;;;;;;;2.95;100.00;101824.94;4980636;28;20038;-87
2021/12/12 10:00:58;;;;;;;64.18;55.42;;;;;;;3.13;100.00;101862.56;5006597;28;20101;-87
2021/12/12 10:04:08;;;;;;;58.97;52.53;;;;;;;3.15;100.00;101862.59;4996970;28;20050;-87
2021/12/12 10:07:13;;;;;;;59.28;52.75;;;;;;;3.20;100.00;101861.03;4977525;28;20081;-87
2021/12/12 10:10:17;;;;;;;59.03;52.70;;;;;;;3.28;100.00;101849.31;4989054;28;20023;-87
2021/12/12 10:13:21;;;;;;;56.88;51.10;;;;;;;3.11;100.00;101822.72;4996971;28;20050;-88
2021/12/12 10:16:24;;;;;;;55.45;49.88;;;;;;;3.28;100.00;101841.69;4950416;29;20071;-87
2021/12/12 10:19:04;;;;;;;58.75;51.85;;;;;;;3.35;100.00;101840.97;4981604;28;20118;-87
2021/12/12 10:22:09;;;;;;;55.08;49.80;;;;;;;3.41;100.00;101836.00;4998648;28;20030;-88
2021/12/12 10:25:35;;;;;;;54.22;49.08;;;;;;;3.15;100.00;101791.41;4977054;28;20049;-88
2021/12/12 10:28:25;;;;;;;57.45;51.70;;;;;;;3.47;100.00;101842.03;4972241;28;20023;-88
2021/12/12 10:31:15;;;;;;;54.47;49.25;;;;;;;3.47;100.00;101839.47;4935663;29;20019;-86
2021/12/12 10:33:48;;;;;;;56.80;51.03;;;;;;;3.57;100.00;101833.75;4996098;28;20039;-81
2021/12/12 10:36:20;;;;;;;62.53;51.72;;;;;;;3.49;100.00;101820.03;4961816;28;20033;-81
2021/12/12 10:39:17;;;;;;;57.58;51.38;;;;;;;3.59;100.00;101835.47;4999084;28;20006;-81
2021/12/12 10:41:47;;;;;;;59.83;52.22;;;;;;;3.59;100.00;101827.00;4972878;28;20106;-81
2021/12/12 10:44:16;;;;;;;56.45;50.50;;;;;;;3.63;100.00;101831.31;4967245;28;20026;-82
2021/12/12 10:47:02;;;;;;;57.08;50.92;;;;;;;3.61;100.00;101823.66;4993074;28;20034;-82
2021/12/12 10:49:36;;;;;;;67.30;53.92;;;;;;;3.66;100.00;101825.41;4981447;28;20038;-80
2021/12/12 10:52:10;;;;;;;55.35;49.88;;;;;;;3.68;100.00;101829.69;5012875;28;20037;-82
2021/12/12 10:54:43;;;;;;;55.17;49.78;;;;;;;3.60;100.00;101821.94;4988913;28;20042;-84
2021/12/12 10:57:13;;;;;;;56.08;50.38;;;;;;;3.62;100.00;101827.03;4988192;28;20027;-86
2021/12/12 10:59:52;;;;;;;56.53;50.63;;;;;;;3.61;100.00;101822.78;4958451;28;20020;-84
2021/12/12 11:02:24;;;;;;;56.15;50.45;;;;;;;3.64;100.00;101812.66;4961418;28;20030;-84
2021/12/12 11:04:57;;;;;;;53.80;49.00;;;;;;;3.64;100.00;101817.75;4986017;28;20023;-85
2021/12/12 11:07:26;;;;;;;56.60;50.92;;;;;;;3.58;100.00;101797.28;4997613;28;20077;-86
2021/12/12 11:10:22;;;;;;;54.47;49.45;;;;;;;3.51;100.00;101786.13;4982621;28;20065;-84
2021/12/12 11:13:17;;;;;;;55.25;50.15;;;;;;;3.67;100.00;101801.69;5000454;28;20027;-84
2021/12/12 11:16:09;;;;;;;54.75;49.28;;;;;;;3.71;100.00;101808.56;4985591;28;20081;-86
2021/12/12 11:18:51;;;;;;;54.67;49.40;;;;;;;3.73;100.00;101817.06;5000760;28;20094;-84
2021/12/12 11:21:45;;;;;;;54.70;49.70;;;;;;;3.50;100.00;101783.56;5016790;28;20021;-85
2021/12/12 11:24:54;;;;;;;54.53;49.63;;;;;;;3.76;100.00;101823.06;5004226;28;20035;-82
2021/12/12 11:27:45;;;;;;;;;;;;;;;3.75;100.00;101831.50;4999321;28;20018;-83
2021/12/12 11:30:26;;;;;;;55.90;50.30;;;;;;;3.79;100.00;101828.19;4979411;28;19918;-84
2021/12/12 11:32:59;;;;;;;56.95;50.85;;;;;;;3.52;100.00;101779.38;4994841;28;19999;-84
2021/12/12 11:35:31;;;;;;;57.60;51.55;;;;;;;3.48;100.00;101764.88;4959668;28;20034;-86
2021/12/12 11:38:47;;;;;;;;;;;;;;;;;;;;;
2021/12/12 11:41:45;;;;;;;56.33;50.63;;;;;;;3.77;100.00;101803.53;4989093;28;20045;-85
2021/12/12 11:47:54;;;;;;;56.72;51.22;;;;;;;3.86;100.00;101823.22;4981409;28;20054;-85
2021/12/12 11:50:52;;;;;;;56.20;50.90;;;;;;;3.86;100.00;101818.13;4991439;28;20018;-85
2021/12/12 11:53:42;;;;;;;59.15;52.67;;;;;;;3.84;100.00;101818.09;4968946;28;20031;-86
2021/12/12 11:56:34;;;;;;;56.72;51.30;;;;;;;3.84;100.00;101804.53;4980901;28;20059;-84
2021/12/12 11:59:25;;;;;;;56.67;51.15;;;;;;;3.91;100.00;101808.84;4991406;28;20017;-86
2021/12/12 12:02:38;;;;;;;58.10;52.10;;;;;;;3.99;100.00;101814.94;5016893;28;20022;-85
2021/12/12 12:05:32;;;;;;;56.38;50.83;;;;;;;3.80;100.00;101784.09;4981260;28;20019;-83
2021/12/12 12:08:29;;;;;;;57.70;51.95;;;;;;;3.93;100.00;101800.44;4966474;28;20011;-82
2021/12/12 12:11:23;;;;;;;83.20;58.65;;;;;;;3.97;100.00;101797.06;5020262;23;20031;-82
2021/12/12 12:14:12;;;;;;;58.05;52.38;;;;;;;3.91;100.00;101799.53;4995482;28;20298;-83
2021/12/12 12:16:53;;;;;;;64.82;54.83;;;;;;;3.96;100.00;101794.50;4980419;28;20050;-82
2021/12/12 12:19:24;;;;;;;67.30;55.03;;;;;;;3.94;100.00;101796.19;4976843;28;20007;-85
2021/12/12 12:22:08;;;;;;;59.53;53.22;;;;;;;3.89;100.00;101790.16;4987498;28;20050;-83
2021/12/12 12:26:50;;;;;;;59.22;52.45;;;;;;;3.94;100.00;101786.00;4998417;28;20018;-89
2021/12/12 12:27:51;;;;;;;60.60;53.90;;;;;;;3.99;100.00;101807.28;5013224;28;20058;-88
2021/12/12 12:30:38;;;;;;;59.58;53.25;;;;;;;4.03;100.00;101810.75;4969170;28;20057;-87
2021/12/12 12:33:13;;;;;;;58.72;52.78;;;;;;;4.04;100.00;101803.16;4989541;28;20026;-90
2021/12/12 12:36:20;;;;;;;60.83;54.20;;;;;;;4.09;100.00;101808.28;4994592;28;20030;-84
2021/12/12 12:39:17;;;;;;;66.75;55.58;;;;;;;4.10;100.00;101808.31;4955880;29;20110;-85
2021/12/12 12:42:01;;;;;;;58.63;52.63;;;;;;;4.14;100.00;101799.91;4952665;28;20649;-85
2021/12/12 12:45:11;;;;;;;60.92;54.17;;;;;;;4.10;100.00;101815.94;4992033;28;20027;-85
2021/12/12 12:47:55;;;;;;;60.80;54.45;;;;;;;4.15;100.00;101819.44;4990706;28;20031;-85
2021/12/12 12:50:50;;;;;;;59.55;53.40;;;;;;;4.17;100.00;101822.03;4987407;28;20030;-87
2021/12/12 12:53:31;;;;;;;59.25;52.85;;;;;;;4.22;100.00;101822.09;4950722;28;20065;-86
2021/12/12 12:56:35;;;;;;;89.88;61.53;;;;;;;4.22;100.00;101822.94;4971261;28;20007;-83
2021/12/12 12:59:25;;;;;;;60.22;53.88;;;;;;;4.25;100.00;101817.00;5010025;28;20059;-84
2021/12/12 13:02:31;;;;;;;61.28;54.72;;;;;;;4.22;100.00;101822.09;4995948;28;20010;-82
2021/12/12 13:04:57;;;;;;;58.92;52.85;;;;;;;4.24;100.00;101816.16;5000324;28;20042;-83
2021/12/12 13:07:39;;;;;;;65.63;55.27;;;;;;;4.18;100.00;101801.66;5011608;28;20046;-85
2021/12/12 13:10:22;;;;;;;61.55;54.85;;;;;;;4.27;100.00;101815.38;4995189;28;20011;-82
2021/12/12 13:12:57;;;;;;;62.28;54.45;;;;;;;4.21;100.00;101807.63;4983309;28;20098;-83
2021/12/12 13:15:57;;;;;;;60.75;54.30;;;;;;;4.26;100.00;101821.28;4987351;28;20034;-84
2021/12/12 13:18:47;;;;;;;60.50;54.15;;;;;;;4.30;100.00;101823.06;4981984;28;20022;-85
2021/12/12 13:21:40;;;;;;;60.25;53.92;;;;;;;4.30;100.00;101821.34;4997913;28;20033;-85
2021/12/12 13:24:45;;;;;;;62.95;56.00;;;;;;;4.36;100.00;101833.34;4992838;28;20030;-87
2021/12/12 13:28:00;;;;;;;61.03;54.55;;;;;;;4.15;100.00;101791.44;4990403;28;20099;-86
2021/12/12 13:30:50;;;;;;;61.80;54.45;;;;;;;4.35;100.00;101835.00;4998608;28;20035;-86
2021/12/12 13:33:29;;;;;;;71.45;58.45;;;;;;;4.42;100.00;101830.00;4981357;28;20019;-84
2021/12/12 13:36:10;;;;;;;63.47;55.17;;;;;;;4.48;100.00;101825.84;4970474;28;20026;-86
2021/12/12 13:39:08;;;;;;;60.72;54.38;;;;;;;4.43;100.00;101816.44;4992855;28;20041;-86
2021/12/12 13:41:56;;;;;;;60.33;54.08;;;;;;;4.54;100.00;101830.19;4965838;28;20014;-83
2021/12/12 13:44:39;;;;;;;67.70;56.67;;;;;;;4.59;100.00;101845.53;4994305;28;20030;-83
2021/12/12 13:47:08;;;;;;;60.75;54.03;;;;;;;4.69;100.00;101844.81;4992182;28;20027;-84